Terminal Aerodrome Forecast
Issued by NWS

Home | Current Version | Previous Version | Text Only | Print | Product List | Glossary On
Versions: 1 2 3 4 5 6 7 8 9 10 11 12
558
FTPA31 PHFO 241135
TAFHNY
TAF
PHNY 241135Z 2412/2512 06004KT P6SM FEW025
     FM242000 24010KT P6SM FEW025 SCT040
     FM250200 34010KT P6SM FEW025 SCT040
     FM250800 04007KT P6SM SCT025=

USA.gov is the U.S. government's official web portal to all federal, state and local government web resources and services.